createdAt,value
2018-04-23T00:00:01.786Z,99295.88
2018-04-23T00:02:29.324Z,99291.34
2018-04-23T00:04:56.789Z,99288.98
2018-04-23T00:07:24.284Z,99291.23
2018-04-23T00:09:51.883Z,99289.88
2018-04-23T00:12:19.349Z,99291.73
2018-04-23T00:14:46.829Z,99285.55
2018-04-23T00:17:14.321Z,99286.77
2018-04-23T00:19:41.844Z,99281.77
2018-04-23T00:22:09.322Z,99282.05
2018-04-23T00:24:37.163Z,99292.20
2018-04-23T00:27:04.653Z,99288.62
2018-04-23T00:29:32.130Z,99287.45
2018-04-23T00:31:59.590Z,99292.68
2018-04-23T00:34:27.133Z,99291.45
2018-04-23T00:36:54.674Z,99296.06
2018-04-23T00:39:22.148Z,99286.44
2018-04-23T00:41:49.692Z,99292.80
2018-04-23T00:44:19.011Z,99284.81
2018-04-23T00:46:46.512Z,99280.28
2018-04-23T00:49:14.174Z,99271.50
2018-04-23T00:51:41.691Z,99279.41
2018-04-23T00:54:09.704Z,99278.32
2018-04-23T00:56:38.194Z,99279.95
2018-04-23T00:59:05.710Z,99270.70
2018-04-23T01:01:33.159Z,99273.99
2018-04-23T01:04:01.023Z,99272.52
2018-04-23T01:06:28.622Z,99272.30
2018-04-23T01:08:56.084Z,99276.40
2018-04-23T01:11:23.611Z,99274.08
2018-04-23T01:13:51.122Z,99263.41
2018-04-23T01:16:18.669Z,99265.23
2018-04-23T01:18:46.149Z,99262.97
2018-04-23T01:21:13.610Z,99261.08
2018-04-23T01:23:41.070Z,99258.95
2018-04-23T01:26:08.856Z,99259.77
2018-04-23T01:28:36.363Z,99265.70
2018-04-23T01:31:03.870Z,99263.20
2018-04-23T01:33:31.363Z,99266.59
2018-04-23T01:35:58.821Z,99263.80
2018-04-23T01:38:26.298Z,99256.56
2018-04-23T01:40:53.770Z,99257.38
2018-04-23T01:43:21.321Z,99255.88
2018-04-23T01:45:48.890Z,99257.66
2018-04-23T01:48:16.349Z,99257.91
2018-04-23T01:50:43.806Z,99261.70
2018-04-23T01:53:11.277Z,99261.51
2018-04-23T01:55:38.754Z,99269.33
2018-04-23T01:58:06.303Z,99267.33
2018-04-23T02:00:34.236Z,99272.66
2018-04-23T02:03:01.747Z,99266.58
2018-04-23T02:05:29.253Z,99272.67
2018-04-23T02:07:56.703Z,99274.88
2018-04-23T02:10:24.181Z,99278.48
2018-04-23T02:12:52.130Z,99275.58
2018-04-23T02:15:19.583Z,99277.39
2018-04-23T02:17:47.141Z,99280.09
2018-04-23T02:20:14.629Z,99275.94
2018-04-23T02:22:42.097Z,99274.30
2018-04-23T02:25:09.632Z,99272.42
2018-04-23T02:27:37.102Z,99264.59
2018-04-23T02:30:05.986Z,99267.42
2018-04-23T02:32:33.445Z,99268.89
2018-04-23T02:35:00.926Z,99263.04
2018-04-23T02:37:28.393Z,99262.89
2018-04-23T02:39:55.943Z,99260.63
2018-04-23T02:42:23.414Z,99259.95
2018-04-23T02:44:50.877Z,99255.91
2018-04-23T02:47:18.344Z,99258.55
2018-04-23T02:49:45.818Z,99254.46
2018-04-23T02:52:13.276Z,99249.92
2018-04-23T02:54:40.771Z,99253.80
2018-04-23T02:57:08.251Z,99253.09
2018-04-23T02:59:35.721Z,99253.66
2018-04-23T03:02:03.224Z,99251.37
2018-04-23T03:04:30.703Z,99254.97
2018-04-23T03:06:58.174Z,99253.44
2018-04-23T03:09:25.729Z,99253.55
2018-04-23T03:11:53.220Z,99253.17
2018-04-23T03:14:20.703Z,99255.42
2018-04-23T03:16:48.189Z,99256.02
2018-04-23T03:19:15.663Z,99258.73
2018-04-23T03:21:43.186Z,99266.03
2018-04-23T03:24:10.712Z,99267.19
2018-04-23T03:26:38.168Z,99254.19
2018-04-23T03:29:05.643Z,99260.33
2018-04-23T03:31:33.132Z,99253.13
2018-04-23T03:34:00.609Z,99249.38
2018-04-23T03:36:28.102Z,99259.27
2018-04-23T03:38:55.585Z,99260.23
2018-04-23T03:41:23.044Z,99255.07
2018-04-23T03:43:50.575Z,99256.88
2018-04-23T03:46:18.161Z,99251.78
2018-04-23T03:48:45.619Z,99252.70
2018-04-23T03:51:13.228Z,99249.73
2018-04-23T03:53:40.725Z,99256.90
2018-04-23T03:56:08.195Z,99254.23
2018-04-23T03:58:35.681Z,99255.33
2018-04-23T04:01:04.141Z,99259.13
2018-04-23T04:03:31.635Z,99257.46
2018-04-23T04:05:59.115Z,99258.30
2018-04-23T04:08:26.592Z,99256.97
2018-04-23T04:10:54.112Z,99259.55
2018-04-23T04:13:33.363Z,99263.34
2018-04-23T04:16:12.466Z,99264.00
2018-04-23T04:18:45.950Z,99264.59
2018-04-23T04:21:13.431Z,99269.52
2018-04-23T04:23:40.878Z,99267.53
2018-04-23T04:26:08.393Z,99269.87
2018-04-23T04:28:36.747Z,99272.94
2018-04-23T04:31:04.400Z,99272.62
2018-04-23T04:33:31.914Z,99278.76
2018-04-23T04:35:59.613Z,99273.20
2018-04-23T04:38:27.087Z,99271.89
2018-04-23T04:40:54.593Z,99269.75
2018-04-23T04:43:22.071Z,99278.30
2018-04-23T04:45:49.525Z,99268.84
2018-04-23T04:48:17.049Z,99268.55
2018-04-23T04:50:44.507Z,99267.05
2018-04-23T04:53:12.009Z,99270.81
2018-04-23T04:55:39.465Z,99278.03
2018-04-23T04:58:06.971Z,99286.59
2018-04-23T05:00:34.503Z,99287.63
2018-04-23T05:03:01.977Z,99296.12
2018-04-23T05:05:29.480Z,99292.18
2018-04-23T05:07:56.963Z,99284.29
2018-04-23T05:10:24.482Z,99282.23
2018-04-23T05:12:51.972Z,99276.08
2018-04-23T05:15:19.441Z,99271.97
2018-04-23T05:17:46.931Z,99281.60
2018-04-23T05:20:14.421Z,99286.28
2018-04-23T05:22:41.884Z,99283.76
2018-04-23T05:25:09.343Z,99278.11
2018-04-23T05:27:36.858Z,99285.47
2018-04-23T05:30:04.366Z,99290.84
2018-04-23T05:32:31.841Z,99291.52
2018-04-23T05:34:59.328Z,99297.64
2018-04-23T05:37:26.781Z,99307.14
2018-04-23T05:39:54.255Z,99319.19
2018-04-23T05:42:21.737Z,99317.33
2018-04-23T05:44:49.230Z,99325.42
2018-04-23T05:47:16.706Z,99339.39
2018-04-23T05:49:44.177Z,99367.86
2018-04-23T05:52:11.683Z,99360.56
2018-04-23T05:54:39.145Z,99369.28
2018-04-23T05:57:06.598Z,99377.38
2018-04-23T05:59:34.072Z,99376.81
2018-04-23T06:02:01.541Z,99386.08
2018-04-23T06:04:29.048Z,99385.82
2018-04-23T06:06:56.528Z,99379.56
2018-04-23T06:09:23.981Z,99381.36
2018-04-23T06:11:52.469Z,99387.84
2018-04-23T06:14:20.530Z,99395.97
2018-04-23T06:16:48.957Z,99386.02
2018-04-23T06:19:17.550Z,99399.49
2018-04-23T06:21:45.028Z,99404.89
2018-04-23T06:24:12.641Z,99395.19
2018-04-23T06:26:40.180Z,99396.34
2018-04-23T06:29:07.646Z,99388.60
2018-04-23T06:31:35.144Z,99330.55
2018-04-23T06:34:02.623Z,99329.83
2018-04-23T06:36:30.101Z,99361.59
2018-04-23T06:38:57.571Z,99397.71
2018-04-23T06:41:25.036Z,99391.72
2018-04-23T06:43:52.522Z,99369.90
2018-04-23T06:46:19.999Z,99364.28
2018-04-23T06:48:47.494Z,99355.95
2018-04-23T06:51:14.975Z,99362.25
2018-04-23T06:53:42.446Z,99365.79
2018-04-23T06:56:09.918Z,99374.14
2018-04-23T06:58:37.433Z,99368.12
2018-04-23T07:01:04.946Z,99378.91
2018-04-23T07:03:32.443Z,99382.89
2018-04-23T07:05:59.919Z,99372.84
2018-04-23T07:08:27.422Z,99376.28
2018-04-23T07:10:54.911Z,99373.55
2018-04-23T07:13:22.416Z,99371.81
2018-04-23T07:15:49.881Z,99367.17
2018-04-23T07:18:17.409Z,99360.56
2018-04-23T07:20:44.889Z,99354.30
2018-04-23T07:23:12.379Z,99352.73
2018-04-23T07:25:39.843Z,99354.04
2018-04-23T07:28:07.326Z,99355.92
2018-04-23T07:30:34.953Z,99363.30
2018-04-23T07:33:02.415Z,99352.78
2018-04-23T07:35:29.901Z,99347.37
2018-04-23T07:37:57.385Z,99345.42
2018-04-23T07:40:24.850Z,99353.72
2018-04-23T07:42:52.327Z,99347.97
2018-04-23T07:45:19.799Z,99354.62
2018-04-23T07:47:47.279Z,99352.55
2018-04-23T07:50:14.784Z,99358.69
2018-04-23T07:52:42.261Z,99354.88
2018-04-23T07:55:09.751Z,99347.52
2018-04-23T07:57:37.232Z,99353.66
2018-04-23T08:00:04.685Z,99340.98
2018-04-23T08:02:32.188Z,99342.44
2018-04-23T08:04:59.692Z,99343.20
2018-04-23T08:07:27.210Z,99345.84
2018-04-23T08:09:54.689Z,99342.89
2018-04-23T08:12:22.172Z,99337.00
2018-04-23T08:14:49.632Z,99335.89
2018-04-23T08:17:17.131Z,99338.00
2018-04-23T08:19:44.658Z,99340.36
2018-04-23T08:22:12.166Z,99339.88
2018-04-23T08:24:39.636Z,99331.06
2018-04-23T08:27:07.105Z,99333.91
2018-04-23T08:29:34.578Z,99341.72
2018-04-23T08:32:02.157Z,99333.85
2018-04-23T08:34:29.593Z,99339.60
2018-04-23T08:36:57.075Z,99342.73
2018-04-23T08:39:24.567Z,99343.79
2018-04-23T08:41:52.024Z,99331.97
2018-04-23T08:44:19.513Z,99334.72
2018-04-23T08:46:47.001Z,99331.41
2018-04-23T08:49:14.461Z,99329.47
2018-04-23T08:51:41.925Z,99322.19
2018-04-23T08:54:09.389Z,99326.62
2018-04-23T08:56:36.956Z,99320.74
2018-04-23T08:59:04.503Z,99344.35
2018-04-23T09:01:32.100Z,99323.23
2018-04-23T09:03:59.574Z,99327.10
2018-04-23T09:06:27.042Z,99316.11
2018-04-23T09:08:54.486Z,99306.59
2018-04-23T09:11:21.974Z,99313.48
2018-04-23T09:13:49.430Z,99307.95
2018-04-23T09:16:16.892Z,99326.19
2018-04-23T09:18:44.370Z,99318.80
2018-04-23T09:21:11.829Z,99308.69
2018-04-23T09:23:39.306Z,99306.81
2018-04-23T09:26:12.399Z,99295.04
2018-04-23T09:28:39.912Z,99304.61
2018-04-23T09:31:07.390Z,99304.21
2018-04-23T09:33:34.844Z,99304.91
2018-04-23T09:36:02.311Z,99304.30
2018-04-23T09:38:29.783Z,99301.12
2018-04-23T09:40:57.274Z,99306.98
2018-04-23T09:43:24.734Z,99309.73
2018-04-23T09:45:52.274Z,99308.59
2018-04-23T09:48:19.751Z,99320.05
2018-04-23T09:50:47.202Z,99305.56
2018-04-23T09:53:14.677Z,99310.25
2018-04-23T09:55:42.153Z,99305.39
2018-04-23T09:58:09.612Z,99318.65
2018-04-23T10:00:37.124Z,99311.80
2018-04-23T10:03:12.199Z,99305.99
2018-04-23T10:05:39.658Z,99314.88
2018-04-23T10:08:07.126Z,99310.30
2018-04-23T10:10:34.898Z,99316.32
2018-04-23T10:13:02.378Z,99305.64
2018-04-23T10:15:29.846Z,99291.34
2018-04-23T10:17:57.318Z,99319.45
2018-04-23T10:20:24.795Z,99306.02
2018-04-23T10:22:52.303Z,99297.70
2018-04-23T10:25:19.763Z,99295.22
2018-04-23T10:27:47.224Z,99300.95
2018-04-23T10:30:15.533Z,99296.57
2018-04-23T10:32:42.990Z,99305.67
2018-04-23T10:35:10.446Z,99298.48
2018-04-23T10:37:37.905Z,99285.02
2018-04-23T10:40:05.368Z,99292.44
2018-04-23T10:42:32.861Z,99290.83
2018-04-23T10:45:00.394Z,99299.81
2018-04-23T10:47:27.878Z,99282.37
2018-04-23T10:49:55.363Z,99282.77
2018-04-23T10:52:22.817Z,99290.46
2018-04-23T10:54:50.298Z,99285.28
2018-04-23T10:57:17.771Z,99287.04
2018-04-23T10:59:45.285Z,99278.19
2018-04-23T11:02:12.766Z,99286.70
2018-04-23T11:04:40.223Z,99288.86
2018-04-23T11:07:07.898Z,99291.06
2018-04-23T11:09:36.315Z,99273.20
2018-04-23T11:12:04.077Z,99282.08
2018-04-23T11:14:32.871Z,99280.05
2018-04-23T11:17:00.321Z,99268.80
2018-04-23T11:19:27.799Z,99266.23
2018-04-23T11:21:55.257Z,99280.59
2018-04-23T11:24:23.243Z,99273.05
2018-04-23T11:26:50.723Z,99273.73
2018-04-23T11:29:18.348Z,99276.27
2018-04-23T11:31:45.820Z,99261.83
2018-04-23T11:34:13.337Z,99267.58
2018-04-23T11:36:40.797Z,99252.53
2018-04-23T11:39:08.280Z,99256.87
2018-04-23T11:41:35.753Z,99254.55
2018-04-23T11:44:03.443Z,99255.74
2018-04-23T11:46:30.897Z,99249.58
2018-04-23T11:48:58.424Z,99242.73
2018-04-23T11:51:25.918Z,99248.41
2018-04-23T11:53:53.420Z,99243.45
2018-04-23T11:56:20.864Z,99239.48
2018-04-23T11:58:48.374Z,99238.23
2018-04-23T12:01:15.835Z,99231.65
2018-04-23T12:03:43.441Z,99237.58
2018-04-23T12:06:10.921Z,99238.30
2018-04-23T12:08:38.396Z,99233.20
2018-04-23T12:11:05.863Z,99235.18
2018-04-23T12:13:33.327Z,99235.56
2018-04-23T12:16:00.856Z,99228.50
2018-04-23T12:18:28.364Z,99223.81
2018-04-23T12:20:55.869Z,99235.31
2018-04-23T12:23:23.342Z,99221.47
2018-04-23T12:25:50.807Z,99223.30
2018-04-23T12:28:18.323Z,99216.73
2018-04-23T12:30:45.905Z,99209.73
2018-04-23T12:33:13.358Z,99214.30
2018-04-23T12:35:40.830Z,99198.81
2018-04-23T12:38:08.322Z,99201.39
2018-04-23T12:40:35.844Z,99211.54
2018-04-23T12:43:03.299Z,99196.16
2018-04-23T12:45:30.770Z,99202.09
2018-04-23T12:47:58.226Z,99199.61
2018-04-23T12:50:25.687Z,99195.56
2018-04-23T12:52:53.146Z,99200.63
2018-04-23T12:55:20.680Z,99199.68
2018-04-23T12:57:48.170Z,99190.48
2018-04-23T13:00:16.118Z,99187.12
2018-04-23T13:02:43.597Z,99187.91
2018-04-23T13:05:11.075Z,99181.16
2018-04-23T13:07:38.534Z,99187.45
2018-04-23T13:10:06.079Z,99179.06
2018-04-23T13:12:33.614Z,99184.36
2018-04-23T13:15:01.067Z,99182.95
2018-04-23T13:17:28.538Z,99185.05
2018-04-23T13:19:56.057Z,99186.92
2018-04-23T13:22:23.523Z,99181.40
2018-04-23T13:24:51.010Z,99171.00
2018-04-23T13:27:18.764Z,99184.70
2018-04-23T13:29:46.290Z,99183.01
2018-04-23T13:32:13.824Z,99189.27
2018-04-23T13:34:41.293Z,99187.05
2018-04-23T13:37:08.762Z,99172.86
2018-04-23T13:39:36.303Z,99171.17
2018-04-23T13:42:03.781Z,99169.36
2018-04-23T13:44:31.242Z,99162.97
2018-04-23T13:46:58.746Z,99166.50
2018-04-23T13:49:26.282Z,99155.45
2018-04-23T13:51:53.747Z,99160.74
2018-04-23T13:54:21.251Z,99154.68
2018-04-23T13:56:48.711Z,99147.37
2018-04-23T13:59:16.197Z,99145.30
2018-04-23T14:01:43.693Z,99147.78
2018-04-23T14:04:11.178Z,99149.21
2018-04-23T14:06:38.649Z,99144.45
2018-04-23T14:09:06.155Z,99147.68
2018-04-23T14:11:33.661Z,99139.46
2018-04-23T14:14:01.144Z,99130.31
2018-04-23T14:16:28.622Z,99125.89
2018-04-23T14:18:56.095Z,99126.64
2018-04-23T14:21:23.603Z,99120.23
2018-04-23T14:23:51.078Z,99119.06
2018-04-23T14:26:18.604Z,99120.62
2018-04-23T14:28:46.078Z,99121.56
2018-04-23T14:31:13.549Z,99118.38
2018-04-23T14:33:41.011Z,99119.50
2018-04-23T14:36:08.465Z,99118.99
2018-04-23T14:38:35.933Z,99117.81
2018-04-23T14:41:03.394Z,99114.25
2018-04-23T14:43:30.838Z,99114.00
2018-04-23T14:45:58.338Z,99118.63
2018-04-23T14:48:25.799Z,99119.63
2018-04-23T14:50:53.275Z,99120.12
2018-04-23T14:53:20.765Z,99129.77
2018-04-23T14:55:48.226Z,99123.26
2018-04-23T14:58:15.734Z,99121.59
2018-04-23T15:00:43.192Z,99122.75
2018-04-23T15:03:10.688Z,99119.56
2018-04-23T15:05:38.162Z,99122.63
2018-04-23T15:08:05.706Z,99115.85
2018-04-23T15:10:33.215Z,99114.18
2018-04-23T15:13:00.660Z,99116.55
2018-04-23T15:15:28.130Z,99113.42
2018-04-23T15:17:55.680Z,99106.19
2018-04-23T15:20:23.080Z,99110.47
2018-04-23T15:22:50.567Z,99098.94
2018-04-23T15:25:18.027Z,99104.50
2018-04-23T15:27:45.490Z,99101.97
2018-04-23T15:30:12.959Z,99090.97
2018-04-23T15:32:40.953Z,99097.34
2018-04-23T15:35:08.525Z,99092.78
2018-04-23T15:37:36.056Z,99101.62
2018-04-23T15:40:03.562Z,99100.08
2018-04-23T15:42:31.043Z,99108.11
2018-04-23T15:44:58.578Z,99099.11
2018-04-23T15:47:26.047Z,99108.05
2018-04-23T15:49:53.518Z,99100.89
2018-04-23T15:52:20.979Z,99095.73
2018-04-23T15:54:48.463Z,99099.41
2018-04-23T15:57:15.937Z,99099.34
2018-04-23T15:59:43.398Z,99094.17
2018-04-23T16:02:10.853Z,99093.91
2018-04-23T16:04:38.315Z,99096.99
2018-04-23T16:07:05.802Z,99100.09
2018-04-23T16:09:33.283Z,99096.48
2018-04-23T16:12:00.750Z,99092.27
2018-04-23T16:14:28.845Z,99101.22
2018-04-23T16:16:56.310Z,99096.33
2018-04-23T16:19:23.772Z,99103.80
2018-04-23T16:21:51.245Z,99098.71
2018-04-23T16:24:18.706Z,99101.64
2018-04-23T16:26:46.189Z,99110.69
2018-04-23T16:29:14.726Z,99109.80
2018-04-23T16:31:42.222Z,99105.63
2018-04-23T16:34:09.773Z,99109.67
2018-04-23T16:36:37.224Z,99103.64
2018-04-23T16:39:04.741Z,99108.38
2018-04-23T16:41:32.209Z,99116.27
2018-04-23T16:43:59.688Z,99112.11
2018-04-23T16:46:27.180Z,99125.13
2018-04-23T16:48:54.670Z,99115.92
2018-04-23T16:51:22.118Z,99120.14
2018-04-23T16:53:49.599Z,99120.73
2018-04-23T16:56:17.074Z,99120.36
2018-04-23T16:58:44.543Z,99122.89
2018-04-23T17:01:12.042Z,99125.16
2018-04-23T17:03:39.511Z,99134.53
2018-04-23T17:06:07.020Z,99131.17
2018-04-23T17:08:34.537Z,99134.95
2018-04-23T17:11:02.066Z,99124.67
2018-04-23T17:13:29.523Z,99132.64
2018-04-23T17:15:56.999Z,99131.67
2018-04-23T17:18:24.471Z,99144.88
2018-04-23T17:20:51.946Z,99148.15
2018-04-23T17:23:19.422Z,99141.58
2018-04-23T17:25:46.899Z,99148.36
2018-04-23T17:28:14.364Z,99149.56
2018-04-23T17:30:41.827Z,99151.27
2018-04-23T17:33:09.306Z,99165.87
2018-04-23T17:35:36.756Z,99164.36
2018-04-23T17:38:04.260Z,99165.04
2018-04-23T17:40:31.710Z,99170.27
2018-04-23T17:42:59.200Z,99173.23
2018-04-23T17:45:26.694Z,99170.28
2018-04-23T17:47:54.145Z,99187.84
2018-04-23T17:50:21.648Z,99203.91
2018-04-23T17:52:49.148Z,99212.81
2018-04-23T17:55:16.602Z,99226.34
2018-04-23T17:57:44.165Z,99229.13
2018-04-23T18:00:11.907Z,99242.42
2018-04-23T18:02:39.420Z,99250.33
2018-04-23T18:05:06.908Z,99253.30
2018-04-23T18:07:35.168Z,99266.99
2018-04-23T18:10:02.776Z,99273.88
2018-04-23T18:12:30.316Z,99276.17
2018-04-23T18:14:58.079Z,99284.64
2018-04-23T18:17:25.601Z,99287.02
2018-04-23T18:19:53.136Z,99301.98
2018-04-23T18:22:20.900Z,99302.80
2018-04-23T18:24:48.365Z,99295.55
2018-04-23T18:27:15.988Z,99298.66
2018-04-23T18:29:43.476Z,99300.94
2018-04-23T18:32:11.059Z,99303.57
2018-04-23T18:34:38.547Z,99299.41
2018-04-23T18:37:06.103Z,99304.52
2018-04-23T18:39:33.683Z,99304.73
2018-04-23T18:42:01.157Z,99306.06
2018-04-23T18:44:28.660Z,99319.12
2018-04-23T18:46:56.159Z,99313.69
2018-04-23T18:49:23.667Z,99317.98
2018-04-23T18:51:51.144Z,99327.93
2018-04-23T18:54:18.642Z,99325.45
2018-04-23T18:56:46.875Z,99331.95
2018-04-23T18:59:14.461Z,99336.47
2018-04-23T19:01:41.927Z,99338.54
2018-04-23T19:04:09.424Z,99347.08
2018-04-23T19:06:36.919Z,99348.19
2018-04-23T19:09:04.444Z,99348.59
2018-04-23T19:11:31.928Z,99361.66
2018-04-23T19:13:59.365Z,99364.78
2018-04-23T19:16:26.874Z,99358.73
2018-04-23T19:18:54.391Z,99367.31
2018-04-23T19:21:22.333Z,99362.65
2018-04-23T19:23:49.798Z,99352.95
2018-04-23T19:26:17.586Z,99351.08
2018-04-23T19:28:45.241Z,99351.12
2018-04-23T19:31:12.716Z,99360.65
2018-04-23T19:33:40.224Z,99365.59
2018-04-23T19:36:07.736Z,99371.30
2018-04-23T19:38:35.270Z,99379.23
2018-04-23T19:41:02.749Z,99382.53
2018-04-23T19:43:30.249Z,99380.20
2018-04-23T19:45:57.824Z,99378.97
2018-04-23T19:48:25.337Z,99376.86
2018-04-23T19:50:52.848Z,99383.05
2018-04-23T19:53:20.474Z,99384.48
2018-04-23T19:55:48.004Z,99390.42
2018-04-23T19:58:15.462Z,99387.78
2018-04-23T20:00:42.992Z,99389.38
2018-04-23T20:03:10.472Z,99383.38
2018-04-23T20:05:38.049Z,99383.98
2018-04-23T20:08:05.604Z,99377.88
2018-04-23T20:10:33.129Z,99379.99
2018-04-23T20:13:00.609Z,99384.17
2018-04-23T20:15:28.086Z,99383.61
2018-04-23T20:17:55.576Z,99390.21
2018-04-23T20:20:23.075Z,99390.84
2018-04-23T20:22:50.579Z,99384.59
2018-04-23T20:25:18.104Z,99387.89
2018-04-23T20:27:45.572Z,99390.49
2018-04-23T20:30:13.031Z,99389.97
2018-04-23T20:32:40.519Z,99396.03
2018-04-23T20:35:08.009Z,99393.09
2018-04-23T20:37:35.486Z,99397.16
2018-04-23T20:40:03.029Z,99401.06
2018-04-23T20:42:30.903Z,99400.53
2018-04-23T20:44:58.375Z,99397.47
2018-04-23T20:47:25.889Z,99401.03
2018-04-23T20:49:53.421Z,99399.45
2018-04-23T20:52:21.458Z,99403.49
2018-04-23T20:54:49.343Z,99394.99
2018-04-23T20:57:17.088Z,99387.72
2018-04-23T20:59:44.587Z,99381.85
2018-04-23T21:02:12.088Z,99374.62
2018-04-23T21:04:39.657Z,99375.73
2018-04-23T21:07:07.107Z,99373.62
2018-04-23T21:09:34.594Z,99368.23
2018-04-23T21:12:02.135Z,99372.38
2018-04-23T21:14:29.623Z,99370.58
2018-04-23T21:16:57.903Z,99373.29
2018-04-23T21:19:25.369Z,99370.78
2018-04-23T21:21:52.853Z,99374.44
2018-04-23T21:24:21.088Z,99367.95
2018-04-23T21:26:49.765Z,99376.01
2018-04-23T21:29:17.890Z,99373.97
2018-04-23T21:31:45.480Z,99379.12
2018-04-23T21:34:12.893Z,99390.89
2018-04-23T21:36:40.399Z,99398.30
2018-04-23T21:39:07.898Z,99407.55
2018-04-23T21:41:35.381Z,99416.55
2018-04-23T21:44:03.108Z,99435.09
2018-04-23T21:46:30.579Z,99449.56
2018-04-23T21:48:58.115Z,99473.11
2018-04-23T21:51:25.705Z,99480.69
2018-04-23T21:53:53.455Z,99484.28
2018-04-23T21:56:20.935Z,99467.98
2018-04-23T21:58:48.389Z,99477.18
2018-04-23T22:01:15.856Z,99480.94
2018-04-23T22:03:43.968Z,99485.92
2018-04-23T22:06:11.487Z,99481.91
2018-04-23T22:08:39.082Z,99485.70
2018-04-23T22:11:06.590Z,99475.62
2018-04-23T22:13:34.095Z,99463.48
2018-04-23T22:16:01.633Z,99457.21
2018-04-23T22:18:29.097Z,99428.78
2018-04-23T22:20:56.596Z,99428.30
2018-04-23T22:23:24.077Z,99477.42
2018-04-23T22:25:51.539Z,99494.55
2018-04-23T22:28:19.208Z,99490.20
2018-04-23T22:30:46.678Z,99496.73
2018-04-23T22:33:14.155Z,99506.58
2018-04-23T22:35:41.630Z,99509.67
2018-04-23T22:38:09.120Z,99506.20
2018-04-23T22:40:36.603Z,99502.01
2018-04-23T22:43:04.118Z,99506.77
2018-04-23T22:45:31.571Z,99510.16
2018-04-23T22:47:59.042Z,99506.35
2018-04-23T22:50:26.713Z,99507.00
2018-04-23T22:52:54.222Z,99493.12
2018-04-23T22:55:21.754Z,99480.63
2018-04-23T22:57:49.223Z,99482.82
2018-04-23T23:00:16.778Z,99479.73
2018-04-23T23:02:44.241Z,99472.69
2018-04-23T23:05:11.731Z,99475.54
2018-04-23T23:07:39.202Z,99479.66
2018-04-23T23:10:06.685Z,99477.15
2018-04-23T23:12:34.174Z,99489.48
2018-04-23T23:15:02.539Z,99490.56
2018-04-23T23:17:30.077Z,99489.80
2018-04-23T23:19:57.519Z,99486.30
2018-04-23T23:22:25.028Z,99491.63
2018-04-23T23:24:52.526Z,99492.50
2018-04-23T23:27:20.069Z,99496.23
2018-04-23T23:29:47.498Z,99500.08
2018-04-23T23:32:15.111Z,99493.33
2018-04-23T23:34:42.623Z,99500.27
2018-04-23T23:37:10.079Z,99486.98
2018-04-23T23:39:37.552Z,99490.53
2018-04-23T23:42:05.046Z,99493.94
2018-04-23T23:44:32.579Z,99495.86
2018-04-23T23:47:00.040Z,99494.17
2018-04-23T23:49:27.488Z,99488.81
2018-04-23T23:51:54.937Z,99492.45
2018-04-23T23:54:22.395Z,99495.78
2018-04-23T23:56:49.833Z,99494.17
2018-04-23T23:59:17.339Z,99497.80
